Time;durP1;ratioP1;P1;durP2;ratioP2;P2;SDS_P1;SDS_P2;PMS_P1;PMS_P2;Temp;Humidity;BMP_temperature;BMP_pressure;BME280_temperature;BME280_humidity;BME280_pressure;Samples;Min_cycle;Max_cycle;Signal;HPM_P1;HPM_P2
2022/02/11 00:00:40;;;;;;;12.95;5.22;;;;;;;11.89;41.34;102769.78;5035111;28;20108;-80
2022/02/11 00:08:12;;;;;;;13.10;4.85;;;;;;;11.90;41.35;102762.38;5035020;28;20022;-80
2022/02/11 00:10:38;;;;;;;10.60;4.78;;;;;;;11.89;41.15;102767.03;5033523;28;20072;-81
2022/02/11 00:13:04;;;;;;;13.13;4.55;;;;;;;11.89;41.30;102771.69;5033571;28;20021;-81
2022/02/11 00:15:43;;;;;;;9.18;3.67;;;;;;;11.89;41.02;102766.22;5033587;28;20032;-80
2022/02/11 00:18:14;;;;;;;15.35;5.18;;;;;;;11.90;41.03;102771.41;5033491;28;20488;-80
2022/02/11 00:20:44;;;;;;;10.60;4.85;;;;;;;11.94;41.04;102768.97;5033451;28;20045;-80
2022/02/11 00:23:10;;;;;;;14.25;5.65;;;;;;;11.90;41.04;102770.59;5033585;28;20030;-81
2022/02/11 00:25:40;;;;;;;12.40;3.95;;;;;;;11.71;41.30;102767.50;5033267;28;20030;-80
2022/02/11 00:33:32;;;;;;;10.32;4.47;;;;;;;11.61;41.71;102779.28;5034498;28;20052;-80
2022/02/11 00:36:04;;;;;;;9.00;4.10;;;;;;;11.71;41.48;102783.94;5033188;28;20038;-80
2022/02/11 01:02:51;;;;;;;18.42;5.35;;;;;;;11.36;41.85;102787.44;5034299;28;20055;-81
2022/02/11 01:05:16;;;;;;;17.55;4.85;;;;;;;11.08;42.45;102792.22;5032655;28;20057;-81
2022/02/11 01:07:42;;;;;;;12.88;5.07;;;;;;;11.24;42.00;102784.09;5033713;28;20065;-80
2022/02/11 01:10:08;;;;;;;9.40;5.00;;;;;;;11.33;41.76;102785.19;5032574;28;20034;-80
2022/02/11 01:12:33;;;;;;;12.57;4.57;;;;;;;11.31;41.86;102798.34;5033684;28;20033;-80
2022/02/11 01:15:00;;;;;;;16.48;5.07;;;;;;;11.38;41.78;102785.22;5032421;28;20033;-79
2022/02/11 01:17:39;;;;;;;9.48;3.63;;;;;;;11.43;41.68;102790.72;5033696;28;20033;-80
2022/02/11 01:20:15;;;;;;;;;;;;;;;11.26;41.87;102796.44;5032802;28;20029;-82
2022/02/11 01:27:42;;;;;;;12.27;4.15;;;;;;;11.28;41.83;102791.50;5033360;28;20053;-80
2022/02/11 01:35:24;;;;;;;17.83;5.03;;;;;;;11.29;41.68;102792.31;5033203;28;20120;-80
2022/02/11 01:48:11;;;;;;;13.25;4.43;;;;;;;11.23;42.19;102783.25;5033411;28;20042;-82
2022/02/11 02:22:56;;;;;;;13.60;3.67;;;;;;;11.24;41.80;102823.22;5032996;28;20017;-80
2022/02/11 02:25:39;;;;;;;17.92;5.05;;;;;;;11.15;42.13;102813.06;5031396;28;20025;-81
2022/02/11 02:29:04;;;;;;;8.38;3.70;;;;;;;11.18;41.71;102815.25;5031116;28;20487;-83
2022/02/11 02:58:45;;;;;;;15.45;4.90;;;;;;;10.97;42.05;102834.31;4991069;28;20061;-82
2022/02/11 03:01:31;;;;;;;12.52;3.80;;;;;;;10.96;41.84;102829.09;5010221;28;20076;-82
2022/02/11 03:15:40;;;;;;;9.82;4.32;;;;;;;10.89;42.12;102843.00;5036313;28;20045;-80
2022/02/11 03:50:42;;;;;;;15.13;4.93;;;;;;;10.95;42.12;102852.88;5035511;28;20399;-81
2022/02/11 03:56:32;;;;;;;11.60;4.50;;;;;;;10.94;42.33;102856.69;5035480;28;20036;-81
2022/02/11 04:55:19;;;;;;;11.88;3.75;;;;;;;10.47;43.51;102852.00;5034045;28;20079;-81
2022/02/11 05:00:29;;;;;;;17.25;4.95;;;;;;;10.52;43.37;102854.78;5034519;28;20055;-81
2022/02/11 05:02:57;;;;;;;11.52;4.85;;;;;;;10.57;43.28;102859.44;5032828;28;20613;-81
2022/02/11 05:05:23;;;;;;;13.82;4.32;;;;;;;10.62;43.12;102858.66;5032811;28;20395;-80
2022/02/11 05:07:49;;;;;;;12.50;4.57;;;;;;;10.64;42.77;102854.56;5032709;28;20080;-81
2022/02/11 05:10:15;;;;;;;13.50;5.00;;;;;;;10.61;42.74;102852.38;5033726;28;20029;-81
2022/02/11 05:12:42;;;;;;;9.63;4.07;;;;;;;10.63;42.84;102846.66;5033531;28;20395;-81
2022/02/11 05:15:09;;;;;;;9.02;4.50;;;;;;;10.60;42.79;102842.53;5032595;28;20057;-81
2022/02/11 05:17:36;;;;;;;12.18;4.88;;;;;;;10.62;42.96;102853.19;5032061;28;20026;-80
2022/02/11 05:20:03;;;;;;;15.70;5.80;;;;;;;10.62;42.80;102853.19;5033736;28;20468;-83
2022/02/11 05:22:29;;;;;;;9.38;4.72;;;;;;;10.52;42.84;102865.72;5032293;28;20116;-81
2022/02/11 05:24:55;;;;;;;13.20;4.50;;;;;;;10.54;42.92;102857.25;5033486;28;20121;-80
2022/02/11 05:27:20;;;;;;;17.45;5.88;;;;;;;10.57;42.75;102863.00;5032134;28;20124;-82
2022/02/11 05:29:46;;;;;;;17.13;5.00;;;;;;;10.43;42.98;102861.81;5033024;28;20539;-81
2022/02/11 05:32:11;;;;;;;11.88;5.03;;;;;;;10.31;43.40;102863.06;5032029;28;20017;-82
2022/02/11 05:34:37;;;;;;;8.20;4.13;;;;;;;10.40;43.23;102880.63;5032094;28;20036;-81
2022/02/11 05:37:03;;;;;;;15.07;5.55;;;;;;;10.43;43.07;102880.94;5032190;28;20030;-81
2022/02/11 05:39:28;;;;;;;12.15;5.30;;;;;;;10.58;42.83;102883.00;5032044;28;20080;-83
2022/02/11 05:41:54;;;;;;;12.57;4.93;;;;;;;10.67;42.56;102883.31;5032025;28;20028;-81
2022/02/11 05:44:19;;;;;;;14.55;5.15;;;;;;;10.45;43.04;102876.03;5033258;28;20031;-81
2022/02/11 05:46:45;;;;;;;18.75;5.95;;;;;;;10.54;42.90;102879.94;5032165;28;20034;-81
2022/02/11 05:49:11;;;;;;;11.65;4.55;;;;;;;10.68;42.52;102877.59;5031947;28;20033;-81
2022/02/11 05:51:36;;;;;;;11.82;5.57;;;;;;;10.61;42.70;102879.72;5033262;28;20025;-82
2022/02/11 05:54:02;;;;;;;12.77;5.32;;;;;;;10.57;42.62;102884.03;5031831;28;20032;-83
2022/02/11 05:56:27;;;;;;;12.65;4.70;;;;;;;10.60;42.78;102886.28;5031765;28;20029;-82
2022/02/11 05:58:53;;;;;;;9.88;4.63;;;;;;;10.54;42.59;102890.88;5032979;28;20491;-82
2022/02/11 06:01:19;;;;;;;10.07;4.18;;;;;;;10.55;42.60;102870.66;5031777;28;20506;-81
2022/02/11 06:03:44;;;;;;;10.43;4.45;;;;;;;10.56;42.69;102885.97;5031546;28;20490;-81
2022/02/11 06:06:10;;;;;;;13.02;4.75;;;;;;;10.55;42.45;102878.84;5031631;28;20029;-81
2022/02/11 06:08:36;;;;;;;14.95;4.53;;;;;;;10.49;42.71;102877.16;5032919;28;20033;-81
2022/02/11 06:11:01;;;;;;;14.10;4.43;;;;;;;10.57;42.40;102881.31;5031674;28;20030;-83
2022/02/11 06:13:28;;;;;;;15.50;4.78;;;;;;;10.53;42.64;102886.50;5031536;28;20480;-81
2022/02/11 06:15:56;;;;;;;15.57;5.43;;;;;;;10.53;42.65;102875.56;5031447;28;20103;-82
2022/02/11 06:18:22;;;;;;;13.93;4.60;;;;;;;10.51;42.54;102877.72;5032769;28;20033;-82
2022/02/11 06:20:48;;;;;;;10.55;5.10;;;;;;;10.42;42.69;102871.06;5025249;28;20026;-83
2022/02/11 06:23:13;;;;;;;16.27;4.20;;;;;;;10.34;42.77;102863.34;5028441;28;20040;-82
2022/02/11 06:25:39;;;;;;;12.07;5.03;;;;;;;10.29;42.84;102874.25;5031480;28;20108;-83
2022/02/11 06:28:04;;;;;;;14.23;5.45;;;;;;;10.19;42.84;102860.44;5032428;28;20037;-84
2022/02/11 06:30:30;;;;;;;15.60;4.47;;;;;;;10.07;42.92;102859.78;5031317;28;20487;-82
2022/02/11 06:32:55;;;;;;;13.10;4.55;;;;;;;10.06;42.92;102860.88;5031419;28;20037;-83
2022/02/11 06:35:21;;;;;;;10.00;4.47;;;;;;;10.10;42.61;102870.19;5031210;28;20037;-82
2022/02/11 06:37:48;;;;;;;13.33;4.53;;;;;;;10.06;42.84;102871.81;5031097;28;20407;-83
2022/02/11 06:40:15;;;;;;;9.30;4.13;;;;;;;10.05;42.80;102876.44;5031058;28;20031;-83
2022/02/11 06:42:42;;;;;;;9.93;4.47;;;;;;;10.08;42.78;102875.91;5032454;28;20034;-83
2022/02/11 06:45:08;;;;;;;13.83;4.07;;;;;;;10.13;42.76;102875.16;5035186;28;20033;-83
2022/02/11 06:47:34;;;;;;;8.63;4.30;;;;;;;10.17;42.57;102877.09;5035249;28;20033;-82
2022/02/11 06:50:00;;;;;;;10.87;4.37;;;;;;;10.12;42.57;102873.50;5035263;28;20026;-81
2022/02/11 06:52:25;;;;;;;12.53;4.73;;;;;;;10.13;42.45;102886.09;5035150;28;20040;-82
2022/02/11 06:54:51;;;;;;;9.57;4.47;;;;;;;10.10;42.65;102884.69;5034908;28;20093;-82
2022/02/11 06:57:18;;;;;;;15.97;5.77;;;;;;;10.14;42.43;102895.94;5034901;28;20033;-82
2022/02/11 06:59:43;;;;;;;14.30;5.60;;;;;;;10.12;42.31;102887.16;5034920;28;20532;-81
2022/02/11 07:02:18;;;;;;;31.73;6.17;;;;;;;10.07;42.41;102895.31;5034961;28;20030;-83
2022/02/11 07:04:44;;;;;;;11.37;4.27;;;;;;;10.01;42.63;102905.34;5036101;28;20068;-82
2022/02/11 07:07:10;;;;;;;14.60;3.80;;;;;;;10.06;42.62;102910.06;5034796;28;20045;-84
2022/02/11 07:09:36;;;;;;;10.40;4.27;;;;;;;9.98;42.53;102914.88;5034621;28;20507;-82
2022/02/11 07:12:01;;;;;;;11.13;4.17;;;;;;;9.96;42.72;102917.03;5034723;28;20033;-84
2022/02/11 07:14:27;;;;;;;9.83;3.53;;;;;;;9.82;43.06;102926.69;5034796;28;20036;-84
2022/02/11 07:16:54;;;;;;;8.80;3.70;;;;;;;9.99;42.96;102934.81;5034715;28;20042;-82
2022/02/11 07:19:20;;;;;;;9.87;3.57;;;;;;;10.07;42.71;102928.09;5034762;28;20495;-82
2022/02/11 07:21:47;;;;;;;10.13;3.47;;;;;;;9.89;43.30;102927.31;5035011;28;20018;-83
2022/02/11 07:24:16;;;;;;;12.20;3.77;;;;;;;10.01;42.91;102933.47;5051256;28;20032;-82
2022/02/11 07:26:41;;;;;;;10.17;3.33;;;;;;;10.09;42.89;102934.94;5033830;28;20399;-83
2022/02/11 07:29:07;;;;;;;9.17;3.13;;;;;;;10.13;42.80;102932.53;5034573;28;20259;-82
2022/02/11 07:31:33;;;;;;;27.73;5.87;;;;;;;10.24;42.71;102939.78;5034218;28;20065;-81
2022/02/11 07:33:58;;;;;;;8.77;3.55;;;;;;;10.38;42.27;102930.09;5034488;28;20029;-81
2022/02/11 07:36:24;;;;;;;10.17;3.80;;;;;;;10.33;42.71;102935.50;5033949;28;20120;-83
2022/02/11 07:38:52;;;;;;;14.03;3.50;;;;;;;10.44;42.50;102920.84;5035701;28;20029;-83
2022/02/11 07:41:18;;;;;;;8.80;3.20;;;;;;;10.52;42.57;102927.75;5034533;28;20025;-82
2022/02/11 07:43:47;;;;;;;14.10;5.73;;;;;;;10.37;42.81;102930.34;5035894;28;20026;-83
2022/02/11 07:46:13;;;;;;;8.13;2.65;;;;;;;10.36;43.10;102920.50;5034148;28;20033;-83
2022/02/11 07:48:39;;;;;;;12.02;4.20;;;;;;;10.28;43.48;102930.00;5035487;28;20388;-83
2022/02/11 07:51:05;;;;;;;18.35;4.68;;;;;;;10.59;42.65;102924.81;5033911;28;20568;-83
2022/02/11 07:53:34;;;;;;;13.38;3.85;;;;;;;10.53;42.79;102929.41;5033986;28;20061;-83
2022/02/11 07:56:00;;;;;;;12.55;4.47;;;;;;;10.55;42.78;102924.50;5033994;28;20116;-84
2022/02/11 07:58:26;;;;;;;14.82;3.90;;;;;;;10.58;42.71;102921.25;5033813;28;20025;-85
2022/02/11 08:00:52;;;;;;;15.75;4.22;;;;;;;10.72;42.57;102924.38;5034188;28;20032;-82
2022/02/11 08:03:18;;;;;;;15.13;3.63;;;;;;;10.69;42.80;102927.63;5035314;28;20026;-83
2022/02/11 08:05:45;;;;;;;10.52;3.42;;;;;;;10.72;42.58;102927.09;5035298;28;20018;-83
2022/02/11 08:08:11;;;;;;;12.32;3.83;;;;;;;10.64;42.87;102924.84;5034152;28;20022;-84
2022/02/11 08:10:37;;;;;;;11.55;3.70;;;;;;;10.68;42.66;102918.59;5034286;28;20048;-83
2022/02/11 08:13:02;;;;;;;10.05;3.22;;;;;;;10.68;43.04;102924.06;5033827;28;20033;-82
2022/02/11 08:15:28;;;;;;;13.60;3.38;;;;;;;10.72;42.98;102927.09;5033693;28;20025;-84
2022/02/11 08:17:53;;;;;;;9.20;3.60;;;;;;;10.54;43.60;102928.31;5034494;28;20060;-82
2022/02/11 08:20:19;;;;;;;11.30;3.47;;;;;;;10.76;43.07;102923.59;5033895;28;20071;-84
2022/02/11 08:22:45;;;;;;;12.00;3.78;;;;;;;10.77;43.31;102929.88;5033657;28;20395;-83
2022/02/11 08:25:10;;;;;;;8.93;4.17;;;;;;;10.83;43.11;102926.09;5033882;28;20033;-83
2022/02/11 08:27:36;;;;;;;9.88;3.70;;;;;;;10.88;43.29;102915.19;5032831;28;20188;-82
2022/02/11 08:30:02;;;;;;;13.77;3.60;;;;;;;10.94;43.21;102916.88;5034213;28;20505;-84
2022/02/11 08:32:29;;;;;;;8.30;3.93;;;;;;;11.03;42.90;102929.00;5033411;28;20025;-84
2022/02/11 08:34:57;;;;;;;11.65;3.25;;;;;;;11.12;42.63;102926.59;5034293;28;20152;-83
2022/02/11 08:37:23;;;;;;;10.38;3.53;;;;;;;11.12;42.86;102923.88;5033364;28;20061;-83
2022/02/11 08:39:49;;;;;;;9.65;3.65;;;;;;;11.25;42.62;102920.63;5033268;28;20396;-83
2022/02/11 08:42:14;;;;;;;10.35;2.88;;;;;;;11.28;42.72;102916.56;5033304;28;20028;-84
2022/02/11 08:44:40;;;;;;;8.93;3.60;;;;;;;11.22;42.94;102921.19;5033312;28;20427;-84
2022/02/11 08:47:06;;;;;;;11.75;3.00;;;;;;;11.40;42.58;102926.19;5034702;28;20071;-85
2022/02/11 08:49:32;;;;;;;9.07;3.03;;;;;;;11.48;42.62;102924.06;5033155;28;20065;-83
2022/02/11 08:51:57;;;;;;;13.38;3.38;;;;;;;11.44;42.82;102928.44;5033283;28;20036;-84
2022/02/11 08:54:23;;;;;;;10.43;3.25;;;;;;;11.64;42.57;102929.34;5033354;28;20251;-82
2022/02/11 08:56:49;;;;;;;12.57;3.17;;;;;;;11.69;42.76;102923.06;5049868;28;20400;-82
2022/02/11 08:59:15;;;;;;;15.93;3.17;;;;;;;11.73;42.92;102923.38;5033118;28;20032;-85
2022/02/11 09:01:40;;;;;;;12.30;3.38;;;;;;;11.79;42.93;102908.56;5034650;28;20479;-82
2022/02/11 09:04:07;;;;;;;17.60;3.40;;;;;;;11.92;42.58;102905.38;5032384;28;20028;-83
2022/02/11 09:06:33;;;;;;;7.63;3.17;;;;;;;11.98;42.78;102907.03;5032518;28;20534;-85
2022/02/11 09:08:59;;;;;;;15.32;3.88;;;;;;;12.06;42.81;102911.16;5031711;28;20030;-82
2022/02/11 09:11:25;;;;;;;9.20;3.28;;;;;;;12.27;42.50;102909.31;5033957;28;20033;-83
2022/02/11 09:13:51;;;;;;;12.25;3.60;;;;;;;12.31;42.40;102911.22;5032215;28;20029;-82
2022/02/11 09:16:18;;;;;;;9.63;3.13;;;;;;;12.39;42.49;102909.84;5032322;28;20059;-83
2022/02/11 09:18:44;;;;;;;11.63;3.70;;;;;;;12.45;42.25;102911.50;5032562;28;20035;-84
2022/02/11 09:21:10;;;;;;;12.13;3.33;;;;;;;12.58;42.55;102913.72;5032232;28;20029;-84
2022/02/11 09:23:36;;;;;;;8.98;3.00;;;;;;;12.73;42.22;102916.47;5032813;28;20084;-83
2022/02/11 09:26:02;;;;;;;9.52;3.05;;;;;;;12.82;42.18;102913.16;5032815;28;20021;-90
2022/02/11 09:28:29;;;;;;;6.28;2.63;;;;;;;12.98;42.09;102917.53;5033162;28;20051;-86
2022/02/11 09:30:54;;;;;;;6.43;2.50;;;;;;;13.16;41.95;102921.66;5031409;28;20026;-83
2022/02/11 09:33:20;;;;;;;13.27;3.30;;;;;;;13.20;41.96;102926.31;5032682;28;20029;-84
2022/02/11 09:35:47;;;;;;;10.73;2.78;;;;;;;13.31;41.69;102925.22;5032650;28;20030;-84
2022/02/11 09:38:13;;;;;;;9.27;3.53;;;;;;;13.35;41.96;102925.47;5032635;28;20034;-84
2022/02/11 09:40:43;;;;;;;13.13;4.65;;;;;;;13.43;41.72;102929.56;5032398;28;20032;-87
2022/02/11 09:43:09;;;;;;;9.52;3.25;;;;;;;13.38;42.05;102926.84;5032436;28;20040;-85
2022/02/11 09:45:35;;;;;;;8.65;2.90;;;;;;;13.50;41.69;102924.59;5032404;28;20163;-84
2022/02/11 09:48:01;;;;;;;9.82;2.97;;;;;;;13.47;41.96;102925.16;5032369;28;20021;-84
2022/02/11 09:50:28;;;;;;;10.75;2.83;;;;;;;13.66;41.10;102923.44;5032712;28;20024;-84
2022/02/11 09:52:54;;;;;;;11.23;3.28;;;;;;;13.72;41.33;102916.81;5032564;28;20419;-84
2022/02/11 09:55:32;;;;;;;8.10;2.95;;;;;;;13.62;41.59;102922.38;5032030;28;20099;-87
2022/02/11 09:58:09;;;;;;;6.75;2.88;;;;;;;13.78;41.44;102918.44;5032372;28;20507;-83
2022/02/11 10:00:38;;;;;;;7.60;2.92;;;;;;;13.84;40.96;102922.00;5032683;28;20030;-82
2022/02/11 10:03:14;;;;;;;12.05;5.05;;;;;;;13.72;41.31;102925.06;5030778;28;20046;-83
2022/02/11 10:05:39;;;;;;;10.63;3.92;;;;;;;13.86;41.23;102917.03;5028079;28;20560;-82
2022/02/11 10:08:05;;;;;;;9.25;3.17;;;;;;;13.82;41.05;102910.44;5022970;28;20025;-83
2022/02/11 10:10:47;;;;;;;12.20;3.10;;;;;;;13.84;41.35;102914.56;5033118;28;20032;-82
2022/02/11 10:13:19;;;;;;;10.60;3.67;;;;;;;13.60;41.38;102917.16;5030212;28;20025;-88
2022/02/11 10:15:52;;;;;;;9.77;3.28;;;;;;;13.97;40.90;102912.31;5031599;28;20485;-83
2022/02/11 10:18:25;;;;;;;11.57;3.33;;;;;;;13.95;41.06;102909.03;5031748;28;20040;-83
2022/02/11 10:20:56;;;;;;;10.15;3.25;;;;;;;14.15;40.73;102903.41;5031913;28;20052;-82
2022/02/11 10:23:31;;;;;;;10.40;3.50;;;;;;;14.14;40.81;102902.59;5031511;28;20091;-86
2022/02/11 10:26:07;;;;;;;10.50;2.90;;;;;;;14.19;40.82;102898.97;5033203;28;20021;-82
2022/02/11 10:28:35;;;;;;;9.60;3.08;;;;;;;14.28;40.56;102886.28;5031630;28;20041;-82
2022/02/11 10:31:05;;;;;;;9.95;2.70;;;;;;;14.37;40.43;102886.50;5031333;28;20125;-82
2022/02/11 10:33:49;;;;;;;11.70;2.90;;;;;;;14.27;40.52;102879.13;5031313;28;20029;-82
2022/02/11 10:36:17;;;;;;;10.82;2.78;;;;;;;14.40;40.31;102875.72;5030911;28;20029;-82
2022/02/11 10:38:43;;;;;;;6.97;3.03;;;;;;;14.51;40.26;102865.50;5031709;28;20033;-83
2022/02/11 10:41:09;;;;;;;11.40;2.88;;;;;;;14.50;40.54;102861.09;5031091;28;20025;-82
2022/02/11 10:43:34;;;;;;;10.13;3.83;;;;;;;14.54;40.08;102862.16;5031193;28;20032;-82
2022/02/11 10:46:04;;;;;;;7.10;2.75;;;;;;;14.70;39.83;102855.41;5031197;28;20025;-82
2022/02/11 10:48:34;;;;;;;10.32;3.45;;;;;;;14.78;39.66;102853.97;5031098;28;20528;-82
2022/02/11 10:51:02;;;;;;;9.85;2.60;;;;;;;14.88;39.52;102851.09;5031305;28;20395;-82
2022/02/11 10:53:34;;;;;;;10.32;2.30;;;;;;;14.91;39.53;102845.03;5031059;28;20045;-82
2022/02/11 10:56:02;;;;;;;8.98;2.47;;;;;;;14.86;39.90;102847.00;5031117;28;20033;-83
2022/02/11 10:58:28;;;;;;;8.50;2.00;;;;;;;14.98;40.03;102842.75;5031079;28;20060;-82
2022/02/11 11:01:01;;;;;;;11.07;2.97;;;;;;;14.91;39.74;102842.28;5031202;28;20112;-82
2022/02/11 11:03:33;;;;;;;7.45;2.50;;;;;;;15.13;39.90;102839.00;5032337;28;20030;-83
2022/02/11 11:06:08;;;;;;;9.63;2.53;;;;;;;15.16;39.79;102840.34;5031326;28;20507;-83
2022/02/11 11:08:39;;;;;;;6.75;2.30;;;;;;;15.18;39.30;102833.44;5030790;28;20021;-81
2022/02/11 11:11:08;;;;;;;7.10;2.30;;;;;;;15.24;39.39;102836.94;5032078;28;20357;-82
2022/02/11 11:13:40;;;;;;;6.32;1.63;;;;;;;15.32;39.46;102832.72;5031009;28;20056;-84
2022/02/11 11:16:09;;;;;;;8.40;2.38;;;;;;;15.34;39.13;102820.31;5030988;28;20087;-82
2022/02/11 11:18:37;;;;;;;8.98;2.85;;;;;;;15.42;39.07;102827.09;5031186;28;20134;-82
2022/02/11 11:21:06;;;;;;;11.82;2.92;;;;;;;15.16;39.12;102818.31;5031954;28;20535;-83
2022/02/11 11:23:33;;;;;;;11.77;3.03;;;;;;;15.13;38.89;102819.75;5030813;28;20423;-80
2022/02/11 11:26:09;;;;;;;7.97;3.25;;;;;;;15.01;38.96;102815.75;5030969;28;20515;-81
2022/02/11 11:28:43;;;;;;;7.97;2.67;;;;;;;14.74;38.90;102810.81;5025891;28;20096;-82
2022/02/11 11:31:29;;;;;;;9.43;2.45;;;;;;;15.10;38.44;102801.03;5026228;28;20022;-82
2022/02/11 11:34:15;;;;;;;7.75;1.98;;;;;;;15.27;38.14;102804.16;5023957;28;20125;-83
2022/02/11 11:36:41;;;;;;;13.40;2.72;;;;;;;15.42;38.44;102805.88;5043022;28;20108;-82
2022/02/11 11:39:07;;;;;;;7.63;2.28;;;;;;;15.53;38.21;102801.03;5025695;28;20025;-83
2022/02/11 11:41:35;;;;;;;8.77;3.30;;;;;;;15.52;38.36;102794.72;5025514;28;20437;-81
2022/02/11 11:44:18;;;;;;;11.43;2.90;;;;;;;15.58;38.45;102786.41;5022145;28;20040;-81
2022/02/11 11:46:53;;;;;;;11.45;2.95;;;;;;;15.79;38.26;102783.06;5024802;28;20025;-84
2022/02/11 11:49:26;;;;;;;9.60;2.72;;;;;;;15.89;38.02;102782.09;5022180;28;20404;-83
2022/02/11 11:51:54;;;;;;;11.82;2.33;;;;;;;15.87;37.83;102781.56;5019245;28;20030;-87
2022/02/11 11:54:23;;;;;;;10.50;4.05;;;;;;;15.87;38.04;102781.56;5022796;28;20117;-83
2022/02/11 11:57:05;;;;;;;9.65;4.75;;;;;;;15.89;37.72;102779.34;5021554;28;20022;-84
2022/02/11 11:59:32;;;;;;;14.98;7.68;;;;;;;15.92;37.25;102764.13;5025429;28;20030;-83
2022/02/11 12:02:01;;;;;;;10.02;3.35;;;;;;;15.86;37.26;102760.63;5024540;28;20028;-83
2022/02/11 12:04:49;;;;;;;5.68;2.35;;;;;;;15.81;37.42;102767.03;5022819;28;20032;-83
2022/02/11 12:07:20;;;;;;;9.60;3.55;;;;;;;16.03;37.22;102766.44;5019002;28;20045;-86
2022/02/11 12:09:49;;;;;;;6.53;2.80;;;;;;;16.07;36.95;102769.38;5023055;28;20041;-84
2022/02/11 12:12:20;;;;;;;8.10;2.95;;;;;;;16.14;36.68;102760.72;5023958;28;20025;-83
2022/02/11 12:14:48;;;;;;;8.80;3.03;;;;;;;16.25;36.63;102762.22;5028213;28;20387;-84
2022/02/11 12:17:17;;;;;;;8.48;4.53;;;;;;;16.25;36.52;102753.94;5021461;28;20035;-84
2022/02/11 12:19:45;;;;;;;16.10;3.63;;;;;;;16.36;36.22;102747.09;5026202;28;20025;-85
2022/02/11 12:22:12;;;;;;;10.80;2.70;;;;;;;16.35;36.11;102739.94;5026313;28;20029;-85
2022/02/11 12:27:31;;;;;;;16.23;5.03;;;;;;;16.45;36.45;102738.94;5027327;28;20111;-85
2022/02/11 12:29:58;;;;;;;10.45;3.05;;;;;;;16.69;36.15;102731.31;5022140;28;20102;-82
2022/02/11 12:32:39;;;;;;;11.70;3.35;;;;;;;16.80;36.06;102726.44;5023563;28;20028;-82
2022/02/11 12:35:07;;;;;;;12.63;3.40;;;;;;;16.76;36.27;102717.91;5022150;28;20025;-82
2022/02/11 12:37:34;;;;;;;17.73;3.05;;;;;;;16.78;36.27;102714.88;5045947;28;20030;-83
2022/02/11 12:40:01;;;;;;;47.50;5.90;;;;;;;16.77;35.96;102710.47;5029282;28;20068;-84
2022/02/11 12:42:27;;;;;;;18.23;2.78;;;;;;;16.83;35.61;102709.22;5023304;28;20044;-85
2022/02/11 12:44:53;;;;;;;8.27;3.13;;;;;;;16.73;35.67;102693.72;5019908;28;20041;-83
2022/02/11 12:47:19;;;;;;;12.55;3.30;;;;;;;16.66;35.63;102701.53;5032710;28;20029;-83
2022/02/11 12:49:51;;;;;;;19.00;4.22;;;;;;;16.67;35.34;102678.34;5023637;28;20036;-83
2022/02/11 12:52:25;;;;;;;14.25;2.97;;;;;;;16.74;35.08;102680.72;5025346;28;20564;-86
2022/02/11 12:55:13;;;;;;;17.27;3.17;;;;;;;17.05;34.81;102684.47;5023920;28;20021;-82
2022/02/11 12:57:44;;;;;;;14.52;4.90;;;;;;;16.88;35.02;102670.47;5023603;28;20120;-84
2022/02/11 13:00:24;;;;;;;62.15;47.30;;;;;;;17.08;34.95;102659.00;5026601;28;20018;-85
2022/02/11 13:02:54;;;;;;;48.25;43.50;;;;;;;17.26;34.72;102653.63;5033172;28;20108;-86
2022/02/11 13:05:21;;;;;;;39.95;36.53;;;;;;;17.23;34.59;102645.94;5031492;28;20144;-83
2022/02/11 13:07:49;;;;;;;6.95;5.45;;;;;;;17.26;34.49;102642.56;5035858;28;20476;-82
2022/02/11 13:10:27;;;;;;;21.80;4.88;;;;;;;17.24;34.20;102633.78;5031664;28;20024;-82
2022/02/11 13:13:22;;;;;;;29.00;3.97;;;;;;;17.36;34.08;102631.25;5031843;28;20056;-82
2022/02/11 13:15:48;;;;;;;18.98;2.85;;;;;;;17.60;34.21;102626.22;5022993;28;20404;-83
2022/02/11 13:18:17;;;;;;;9.38;2.50;;;;;;;17.45;34.23;102618.31;5031628;28;20550;-82
2022/02/11 13:20:45;;;;;;;26.27;4.37;;;;;;;17.59;34.07;102609.97;5032330;28;20384;-83
2022/02/11 13:23:13;;;;;;;19.73;3.30;;;;;;;17.72;33.86;102601.63;5032401;28;20032;-86
2022/02/11 13:25:39;;;;;;;13.07;2.08;;;;;;;17.87;33.73;102591.31;5033809;28;20037;-84
2022/02/11 13:28:11;;;;;;;10.32;4.45;;;;;;;17.88;33.35;102592.94;5032126;28;20069;-84
2022/02/11 13:30:40;;;;;;;9.73;2.53;;;;;;;18.10;33.47;102592.88;5033337;28;20029;-84
2022/02/11 13:33:20;;;;;;;16.92;3.58;;;;;;;17.80;34.02;102575.16;5032115;28;20025;-83
2022/02/11 13:35:46;;;;;;;6.85;1.95;;;;;;;18.05;33.69;102564.53;5031825;28;20040;-85
2022/02/11 13:38:22;;;;;;;13.48;2.42;;;;;;;18.11;33.29;102574.31;5032303;28;20496;-81
2022/02/11 13:40:56;;;;;;;13.23;2.15;;;;;;;17.98;33.46;102570.53;5032120;28;20120;-81
2022/02/11 13:43:21;;;;;;;9.10;2.25;;;;;;;18.05;33.10;102561.75;5030668;28;20072;-84
2022/02/11 13:45:54;;;;;;;11.75;2.78;;;;;;;17.66;32.99;102544.81;5033426;28;20057;-80
2022/02/11 13:48:25;;;;;;;17.20;3.38;;;;;;;17.83;32.99;102552.41;5033049;28;20063;-80
2022/02/11 13:51:14;;;;;;;13.55;3.38;;;;;;;17.97;32.39;102544.81;5032958;28;20037;-80
2022/02/11 13:53:49;;;;;;;22.95;2.83;;;;;;;18.19;32.76;102551.41;5033586;28;20065;-80
2022/02/11 13:56:25;;;;;;;9.32;2.42;;;;;;;18.27;32.58;102542.31;5031728;28;20041;-79
2022/02/11 13:59:27;;;;;;;16.52;3.38;;;;;;;18.24;32.09;102538.25;5033582;28;20039;-82
2022/02/11 14:02:03;;;;;;;17.35;2.47;;;;;;;18.52;32.00;102530.50;4991365;28;20523;-82
2022/02/11 14:04:32;;;;;;;4.38;1.02;;;;;;;18.48;32.18;102514.84;5027873;28;20038;-80
2022/02/11 14:06:58;;;;;;;12.83;2.70;;;;;;;18.44;31.88;102525.75;5030681;28;20120;-81
2022/02/11 14:09:37;;;;;;;17.17;2.55;;;;;;;18.40;31.95;102519.22;5031692;28;20354;-81
2022/02/11 14:12:05;;;;;;;22.55;3.45;;;;;;;18.45;31.91;102523.81;5033015;28;20030;-83
2022/02/11 14:14:34;;;;;;;5.63;1.60;;;;;;;18.18;32.31;102524.88;5032747;28;20072;-80
2022/02/11 14:17:00;;;;;;;6.63;1.98;;;;;;;18.31;32.37;102510.09;5031522;28;20037;-81
2022/02/11 14:19:27;;;;;;;5.40;1.80;;;;;;;18.31;32.65;102504.56;5032937;28;20025;-82
2022/02/11 14:21:54;;;;;;;18.45;2.88;;;;;;;18.23;32.67;102489.59;5032947;28;20072;-84
2022/02/11 14:24:20;;;;;;;5.32;2.20;;;;;;;18.34;32.70;102497.56;5032772;28;20029;-81
2022/02/11 14:26:47;;;;;;;20.25;2.75;;;;;;;18.16;32.99;102492.00;5032612;28;20057;-81
2022/02/11 14:29:12;;;;;;;9.10;2.03;;;;;;;18.11;32.87;102492.16;5032729;28;20124;-81
2022/02/11 14:31:41;;;;;;;18.30;3.25;;;;;;;18.12;32.87;102491.00;5031721;28;20106;-81
2022/02/11 14:34:08;;;;;;;13.30;4.43;;;;;;;18.23;32.81;102484.03;5031365;28;20490;-82
2022/02/11 14:36:37;;;;;;;17.08;3.60;;;;;;;18.18;33.08;102467.59;5032449;28;20037;-83
2022/02/11 14:39:04;;;;;;;19.02;3.67;;;;;;;18.20;32.88;102473.59;5032789;28;20026;-85
2022/02/11 14:41:47;;;;;;;10.25;2.10;;;;;;;18.28;32.97;102469.22;5031621;28;20368;-84
2022/02/11 14:44:27;;;;;;;21.83;2.58;;;;;;;18.00;33.18;102454.88;5031423;28;20025;-81
2022/02/11 14:46:55;;;;;;;9.65;1.73;;;;;;;18.11;33.20;102455.38;5032556;28;20028;-81
2022/02/11 14:49:22;;;;;;;5.93;1.90;;;;;;;17.98;33.14;102446.06;5032685;28;20025;-80
2022/02/11 14:51:51;;;;;;;19.50;3.75;;;;;;;17.92;33.33;102453.72;5031265;28;20022;-82
2022/02/11 14:54:17;;;;;;;53.40;26.92;;;;;;;18.08;33.16;102448.53;5032477;28;20033;-80
2022/02/11 14:56:44;;;;;;;25.60;9.68;;;;;;;18.41;32.71;102432.28;5032892;28;20037;-81
2022/02/11 14:59:10;;;;;;;16.70;6.07;;;;;;;18.37;33.05;102430.53;5027298;28;20060;-88
2022/02/11 15:01:40;;;;;;;26.73;24.08;;;;;;;18.33;33.19;102426.75;5026305;28;20053;-79
2022/02/11 15:04:06;;;;;;;11.88;5.43;;;;;;;18.53;32.63;102423.34;5023328;28;20021;-86
2022/02/11 15:06:33;;;;;;;21.55;5.10;;;;;;;18.44;33.12;102414.22;5017463;28;20045;-80
2022/02/11 15:08:59;;;;;;;13.73;3.03;;;;;;;18.55;32.97;102410.00;5029490;28;20022;-80
2022/02/11 15:11:25;;;;;;;12.52;2.70;;;;;;;18.76;32.56;102408.22;5024400;28;20029;-85